Currently 45°F in Temecula, California, USA
45°F
53°F / 45°F
calm
0.00"
Monday, March 25, 2019 7:08 AM PDT

Temecula, California Weather Summary
Last 36 Hours

Temperature Winds Hourly Humidity Dewpoint
Time Report Norm Report Norm Max Gusts Precip. Rpt. Norm Rpt. Norm Pressure
1Mon 07:08 AM  45.1°F  48°F  calm  1 mph  3 mph  0.00"  96%  92%  44°F  46°F  30.13"
Mon 07:00 AM  44.7°F  48°F  2 mph NE  1 mph  4 mph  0.00"  96%  92%  44°F  46°F  30.13"
3Mon 06:52 AM  44.7°F  48°F  3 mph NE  1 mph  4 mph  ----  96%  92%  44°F  46°F  30.13"
Mon 06:00 AM  45.4°F  48°F  3 mph NE  1 mph  5 mph  0.00"  96%  92%  44°F  46°F  30.12"
Mon 05:00 AM  46.5°F  49°F  calm  1 mph  2 mph  0.00"  96%  91%  45°F  46°F  30.12"
Mon 04:00 AM  47.5°F  49°F  calm  1 mph  4 mph  0.00"  96%  90%  46°F  46°F  30.13"
Mon 03:00 AM  48.5°F  50°F  calm  1 mph  none  0.00"  96%  89%  47°F  47°F  30.13"
Mon 02:00 AM  50.0°F  51°F  calm  1 mph  2 mph  0.00"  96%  88%  49°F  47°F  30.14"
Mon 01:00 AM  52.0°F  52°F  1 mph NE  1 mph  2 mph  0.00"  95%  86%  51°F  48°F  30.15"
2Mon 12:00 AM  53.4°F  53°F  calm  2 mph  4 mph  0.00"  95%  85%  52°F  48°F  30.15"
Sun 11:00 PM  54.6°F  54°F  1 mph E  2 mph  5 mph  0.00"  93%  83%  52°F  48°F  30.15"
Sun 10:00 PM  56.0°F  55°F  3 mph S  2 mph  6 mph  0.00"  90%  80%  53°F  49°F  30.16"
Sun 09:00 PM  57.9°F  56°F  4 mph S  3 mph  8 mph  0.00"  87%  76%  54°F  49°F  30.16"
Sun 08:00 PM  60.0°F  58°F  5 mph S  4 mph  8 mph  0.00"  82%  72%  54°F  49°F  30.13"
Sun 07:00 PM  67.3°F  61°F  3 mph S  5 mph  9 mph  0.00"  68%  67%  56°F  49°F  30.10"
Sun 06:00 PM  72.9°F  65°F  3 mph S  7 mph  10 mph  0.00"  59%  59%  57°F  49°F  30.08"
Sun 05:00 PM  72.0°F  68°F  7 mph W  8 mph  11 mph  0.00"  55%  53%  55°F  49°F  30.07"
Sun 04:00 PM  71.9°F  70°F  1 mph NW  9 mph  11 mph  0.00"  50%  50%  51°F  49°F  30.07"
Sun 03:00 PM  70.7°F  71°F  4 mph W  9 mph  9 mph  0.00"  46%  48%  48°F  49°F  30.08"
Sun 02:00 PM  69.4°F  71°F  4 mph W  8 mph  10 mph  0.00"  46%  47%  47°F  49°F  30.11"
Sun 01:00 PM  66.0°F  69°F  4 mph SW  7 mph  11 mph  0.00"  59%  49%  50°F  49°F  30.15"
Sun 12:00 PM  63.9°F  67°F  2 mph SW  6 mph  10 mph  0.00"  63%  53%  50°F  49°F  30.16"
Sun 11:00 AM  61.0°F  63°F  5 mph W  4 mph  11 mph  0.00"  75%  62%  53°F  49°F  30.17"
Sun 10:00 AM  55.8°F  58°F  2 mph NW  3 mph  6 mph  0.00"  88%  73%  52°F  49°F  30.19"
Sun 09:00 AM  51.6°F  53°F  calm  2 mph  5 mph  0.00"  96%  84%  51°F  48°F  30.21"
Sun 08:00 AM  49.3°F  49°F  2 mph SW  1 mph  3 mph  0.00"  98%  91%  49°F  47°F  30.18"
Sun 07:00 AM  48.4°F  48°F  calm  1 mph  3 mph  0.00"  97%  93%  48°F  46°F  30.16"
Sun 06:00 AM  49.8°F  48°F  1 mph NE  1 mph  3 mph  0.00"  97%  92%  49°F  46°F  30.13"
Sun 05:00 AM  51.5°F  48°F  calm  1 mph  6 mph  0.00"  96%  91%  50°F  46°F  30.14"
Sun 04:00 AM  53.0°F  49°F  calm  1 mph  4 mph  0.00"  95%  90%  52°F  46°F  30.14"
Sun 03:00 AM  52.8°F  50°F  1 mph NE  1 mph  5 mph  0.00"  96%  89%  52°F  47°F  30.15"
Sun 02:00 AM  52.8°F  51°F  calm  1 mph  7 mph  0.00"  96%  88%  51°F  47°F  30.14"
Sun 01:00 AM  53.3°F  51°F  5 mph SW  1 mph  6 mph  0.00"  95%  87%  52°F  48°F  30.13"
Sun 12:00 AM  54.3°F  52°F  calm  1 mph  9 mph  0.00"  94%  85%  53°F  48°F  30.14"
Sat 11:00 PM  54.4°F  53°F  5 mph SW  2 mph  11 mph  0.00"  93%  83%  52°F  48°F  30.13"
Sat 10:00 PM  54.9°F  55°F  6 mph S  2 mph  10 mph  0.00"  90%  80%  52°F  49°F  30.14"
Sat 09:00 PM  55.2°F  56°F  2 mph SW  3 mph  11 mph  0.00"  89%  77%  52°F  49°F  30.13"
Sat 08:00 PM  56.5°F  58°F  calm  4 mph  10 mph  0.00"  87%  73%  52°F  49°F  30.12"

  1. Current weather data. No green row appears if the current weather data is also the high or low for the current day.
  2. High temperature for the current day.
  3. Low temperature for the current day.

The Temecula weather pages are a service of WeatherCurrents. Temecula, California is located in the Temecula Valley, in southwestern Riverside County, along the Interstate 15 highway. The Temecula Valley's rolling hills are home to the Temecula wine country, vineyards, golf courses, a casino resort, and Old Town Temecula.
Copyright ©Mon Mar 25 07:09:41 PDT 2019  WeatherCurrents. All rights reserved. - Submit questions and comments - Privacy Policy

This page automatically refreshes every 10 minutes.